Time;durP1;ratioP1;P1;durP2;ratioP2;P2;SDS_P1;SDS_P2;PMS_P1;PMS_P2;Temp;Humidity;BMP_temperature;BMP_pressure;BME280_temperature;BME280_humidity;BME280_pressure;Samples;Min_cycle;Max_cycle;Signal;HPM_P1;HPM_P2
2023/09/05 00:02:14;;;;;;;0.03;0.03;;;;;;;25.74;49.04;102238.53;5052962;28;20021;-67
2023/09/05 00:04:42;;;;;;;0.00;0.00;;;;;;;25.59;49.17;102230.44;5063219;28;20059;-67
2023/09/05 00:07:09;;;;;;;0.00;0.00;;;;;;;25.69;49.19;102218.50;5072390;28;20550;-66
2023/09/05 00:09:34;;;;;;;0.08;0.08;;;;;;;25.65;49.33;102231.22;5072668;28;20036;-66
2023/09/05 00:12:00;;;;;;;0.00;0.00;;;;;;;25.76;48.85;102218.97;5054424;28;20032;-68
2023/09/05 00:14:26;;;;;;;0.00;0.00;;;;;;;25.71;48.43;102216.28;5053426;28;20028;-66
2023/09/05 00:16:51;;;;;;;0.00;0.00;;;;;;;25.56;49.33;102228.28;5053019;28;20029;-66
2023/09/05 00:19:17;;;;;;;0.00;0.00;;;;;;;25.51;49.39;102222.00;5052238;28;20044;-66
2023/09/05 00:21:42;;;;;;;0.10;0.10;;;;;;;25.40;49.45;102218.53;5052358;28;20071;-66
2023/09/05 00:24:31;;;;;;;0.10;0.10;;;;;;;25.50;49.25;102229.44;5052256;28;20032;-66
2023/09/05 00:27:02;;;;;;;0.10;0.10;;;;;;;25.36;49.67;102213.84;5052427;28;20033;-66
2023/09/05 00:29:30;;;;;;;;;;;;;;;25.86;48.91;102221.59;5052665;28;20029;-66
2023/09/05 00:31:59;;;;;;;0.10;0.10;;;;;;;25.42;49.39;102224.56;5052528;28;19912;-66
2023/09/05 00:34:29;;;;;;;0.00;0.00;;;;;;;25.35;50.11;102217.72;5052011;28;20033;-67
2023/09/05 00:36:55;;;;;;;0.00;0.00;;;;;;;25.37;49.88;102227.34;5051927;28;20028;-67
2023/09/05 00:39:21;;;;;;;0.10;0.10;;;;;;;25.40;49.32;102223.19;5051780;28;20055;-66
2023/09/05 00:41:47;;;;;;;0.10;0.10;;;;;;;25.31;49.29;102219.41;5051971;28;20397;-67
2023/09/05 00:44:14;;;;;;;0.00;0.00;;;;;;;25.36;49.75;102222.13;5051587;28;20028;-67
2023/09/05 00:46:45;;;;;;;0.10;0.10;;;;;;;25.30;49.55;102220.53;5052657;28;20487;-67
2023/09/05 00:49:12;;;;;;;0.00;0.00;;;;;;;25.15;49.93;102224.25;5057023;28;20080;-67
2023/09/05 00:51:39;;;;;;;0.00;0.00;;;;;;;25.12;49.65;102220.13;5071829;28;20055;-66
2023/09/05 00:54:07;;;;;;;0.00;0.00;;;;;;;25.05;49.98;102218.84;5072049;28;20032;-67
2023/09/05 00:56:35;;;;;;;0.10;0.10;;;;;;;24.98;50.04;102212.84;5071814;28;20067;-67
2023/09/05 00:59:00;;;;;;;0.00;0.00;;;;;;;25.37;49.48;102223.78;5071927;28;20029;-68
2023/09/05 01:01:26;;;;;;;0.10;0.10;;;;;;;25.01;49.76;102218.59;5056664;28;20045;-67
2023/09/05 01:03:55;;;;;;;0.08;0.08;;;;;;;25.28;49.51;102220.81;5051837;28;20043;-66
2023/09/05 01:06:47;;;;;;;0.10;0.10;;;;;;;25.42;49.09;102227.31;5051731;28;20516;-66
2023/09/05 01:09:42;;;;;;;0.08;0.08;;;;;;;25.24;49.19;102214.25;5009052;28;20061;-66
2023/09/05 01:12:08;;;;;;;0.00;0.00;;;;;;;25.01;49.91;102213.09;5008995;28;20038;-66
2023/09/05 01:14:33;;;;;;;0.08;0.08;;;;;;;24.48;51.50;102219.50;5008649;28;20038;-67
2023/09/05 01:17:02;;;;;;;0.10;0.10;;;;;;;24.50;51.47;102216.47;5009008;28;20053;-67
2023/09/05 01:19:29;;;;;;;0.10;0.10;;;;;;;24.67;51.35;102211.44;5020268;28;20076;-67
2023/09/05 01:22:13;;;;;;;0.00;0.00;;;;;;;24.72;51.20;102209.47;5028634;28;20139;-67
2023/09/05 01:24:39;;;;;;;0.10;0.10;;;;;;;24.80;50.85;102197.88;5028633;28;20038;-66
2023/09/05 01:27:06;;;;;;;0.10;0.10;;;;;;;24.81;51.05;102206.94;5028599;28;20056;-67
2023/09/05 01:29:36;;;;;;;0.00;0.00;;;;;;;24.81;51.10;102206.94;5028462;28;20104;-66
2023/09/05 01:32:03;;;;;;;0.00;0.00;;;;;;;25.12;49.86;102200.03;5028843;28;20122;-67
2023/09/05 01:34:30;;;;;;;0.10;0.10;;;;;;;25.15;49.48;102197.56;5027061;28;20037;-67
2023/09/05 01:36:55;;;;;;;0.00;0.00;;;;;;;25.19;49.52;102201.38;5008510;28;20045;-67
2023/09/05 01:39:21;;;;;;;0.00;0.00;;;;;;;25.23;49.49;102199.69;5008460;28;20046;-67
2023/09/05 01:41:47;;;;;;;0.03;0.03;;;;;;;25.17;49.53;102200.03;5003823;28;20141;-67
2023/09/05 01:44:13;;;;;;;0.10;0.10;;;;;;;25.11;49.47;102196.50;4996105;28;20029;-67
2023/09/05 01:46:38;;;;;;;0.00;0.00;;;;;;;25.09;49.71;102198.72;5034339;28;20036;-67
2023/09/05 01:49:03;;;;;;;0.10;0.10;;;;;;;25.09;49.88;102195.13;5045905;28;20504;-67
2023/09/05 01:51:29;;;;;;;0.10;0.10;;;;;;;25.07;49.54;102198.19;5050046;28;20048;-65
2023/09/05 01:53:54;;;;;;;0.10;0.10;;;;;;;24.93;50.56;102188.13;5050171;28;20029;-67
2023/09/05 01:56:20;;;;;;;0.10;0.10;;;;;;;24.97;49.85;102191.94;5052909;28;20024;-66
2023/09/05 01:58:45;;;;;;;0.03;0.03;;;;;;;24.99;50.25;102195.22;5050737;28;20465;-66
2023/09/05 02:01:10;;;;;;;0.10;0.10;;;;;;;24.95;49.90;102189.50;5050018;28;20048;-67
2023/09/05 02:03:36;;;;;;;0.10;0.10;;;;;;;24.96;49.88;102185.63;5050073;28;20463;-66
2023/09/05 02:06:01;;;;;;;0.10;0.10;;;;;;;24.77;50.92;102187.44;5050199;28;20025;-67
2023/09/05 02:08:26;;;;;;;0.08;0.08;;;;;;;24.83;50.89;102182.72;5050417;28;20021;-66
2023/09/05 02:10:52;;;;;;;0.05;0.05;;;;;;;25.01;50.23;102182.84;5033127;28;20041;-66
2023/09/05 02:13:17;;;;;;;0.05;0.05;;;;;;;24.98;50.20;102175.16;5050481;28;20489;-66
2023/09/05 02:15:43;;;;;;;0.10;0.10;;;;;;;24.80;50.15;102186.88;5050183;28;20040;-66
2023/09/05 02:18:10;;;;;;;0.10;0.10;;;;;;;24.91;49.99;102179.34;5050175;28;20033;-66
2023/09/05 02:20:38;;;;;;;0.00;0.00;;;;;;;24.93;50.50;102177.94;5050656;28;20029;-67
2023/09/05 02:23:03;;;;;;;0.10;0.10;;;;;;;24.87;50.36;102176.34;5050837;28;20059;-66
2023/09/05 02:25:28;;;;;;;0.10;0.10;;;;;;;24.88;50.04;102172.50;5050252;28;20033;-66
2023/09/05 02:27:54;;;;;;;0.10;0.10;;;;;;;24.84;50.27;102170.63;5050194;28;20048;-68
2023/09/05 02:30:19;;;;;;;0.10;0.10;;;;;;;24.80;50.73;102167.63;5050141;28;20040;-67
2023/09/05 02:32:49;;;;;;;0.10;0.10;;;;;;;24.93;50.25;102166.94;5050003;28;20447;-67
2023/09/05 02:35:15;;;;;;;0.03;0.03;;;;;;;24.79;50.66;102162.38;5050218;28;20031;-67
2023/09/05 02:37:40;;;;;;;0.10;0.10;;;;;;;24.77;50.22;102161.84;5032126;28;20060;-66
2023/09/05 02:40:07;;;;;;;0.10;0.10;;;;;;;24.90;50.35;102156.50;5050003;28;20041;-67
2023/09/05 02:42:33;;;;;;;0.10;0.10;;;;;;;24.70;51.34;102156.69;5050033;28;20037;-65
2023/09/05 02:44:58;;;;;;;0.10;0.10;;;;;;;24.76;50.33;102160.22;5059898;28;20029;-65
2023/09/05 02:47:23;;;;;;;0.10;0.10;;;;;;;24.75;50.45;102155.81;5069879;28;20020;-68
2023/09/05 02:49:49;;;;;;;0.10;0.10;;;;;;;24.78;50.35;102158.84;5070151;28;20098;-66
2023/09/05 02:52:14;;;;;;;0.10;0.10;;;;;;;24.81;50.20;102150.00;5069798;28;20070;-66
2023/09/05 02:54:39;;;;;;;0.10;0.10;;;;;;;24.78;50.44;102158.84;5051070;28;20040;-66
2023/09/05 02:57:05;;;;;;;0.10;0.10;;;;;;;24.77;50.60;102153.59;5069979;28;20131;-68
2023/09/05 02:59:30;;;;;;;0.00;0.00;;;;;;;24.57;50.88;102151.81;5069856;28;20076;-67
2023/09/05 03:01:56;;;;;;;0.10;0.10;;;;;;;24.40;51.61;102152.22;5061832;28;20043;-66
2023/09/05 03:04:21;;;;;;;0.10;0.10;;;;;;;24.65;50.55;102142.16;5052467;28;20143;-67
2023/09/05 03:06:46;;;;;;;0.00;0.00;;;;;;;24.47;51.10;102135.41;5053682;28;20037;-66
2023/09/05 03:09:12;;;;;;;0.10;0.10;;;;;;;24.56;50.84;102141.09;5053758;28;20041;-66
2023/09/05 03:11:39;;;;;;;0.10;0.10;;;;;;;24.63;50.91;102136.13;5053798;28;20091;-67
2023/09/05 03:14:04;;;;;;;0.10;0.10;;;;;;;24.62;51.07;102143.53;5054149;28;20025;-66
2023/09/05 03:16:30;;;;;;;0.00;0.00;;;;;;;24.59;50.62;102140.56;5053583;28;20075;-66
2023/09/05 03:18:59;;;;;;;0.00;0.00;;;;;;;24.63;51.09;102144.38;5053603;28;20037;-66
2023/09/05 03:21:28;;;;;;;0.10;0.10;;;;;;;24.54;50.54;102137.81;5053755;28;20029;-66
2023/09/05 03:23:53;;;;;;;0.10;0.10;;;;;;;24.53;51.97;102136.19;5053591;28;20029;-67
2023/09/05 03:26:19;;;;;;;0.10;0.10;;;;;;;24.59;52.18;102138.59;5053499;28;20070;-67
2023/09/05 03:28:45;;;;;;;0.10;0.10;;;;;;;24.73;51.79;102128.63;5053981;28;20465;-67
2023/09/05 03:31:11;;;;;;;0.10;0.10;;;;;;;24.64;52.15;102132.25;5053314;28;20029;-66
2023/09/05 03:33:36;;;;;;;0.10;0.10;;;;;;;24.63;52.01;102131.41;5053216;28;20086;-67
2023/09/05 03:36:03;;;;;;;0.00;0.00;;;;;;;24.76;51.54;102127.22;5053216;28;20112;-67
2023/09/05 03:38:29;;;;;;;0.10;0.10;;;;;;;24.76;51.79;102136.31;5053104;28;20037;-67
2023/09/05 03:40:55;;;;;;;0.00;0.00;;;;;;;24.45;52.64;102134.88;5054088;28;20087;-68
2023/09/05 03:43:20;;;;;;;0.10;0.10;;;;;;;24.50;52.38;102128.50;5052885;28;20040;-66
2023/09/05 03:45:49;;;;;;;0.08;0.08;;;;;;;24.58;52.66;102125.97;5069946;28;20033;-66
2023/09/05 03:48:15;;;;;;;0.00;0.00;;;;;;;24.49;52.76;102135.13;5073222;28;20049;-67
2023/09/05 03:50:40;;;;;;;0.00;0.00;;;;;;;24.39;53.04;102130.53;5072479;28;20507;-66
2023/09/05 03:53:06;;;;;;;0.10;0.10;;;;;;;24.35;53.50;102132.22;5073697;28;20024;-66
2023/09/05 03:55:34;;;;;;;0.05;0.05;;;;;;;24.30;53.60;102129.47;5072942;28;20502;-67
2023/09/05 03:58:03;;;;;;;0.05;0.05;;;;;;;24.35;53.49;102130.25;5065740;28;20501;-67
2023/09/05 04:00:31;;;;;;;0.10;0.10;;;;;;;24.41;52.92;102125.56;5052506;28;20071;-67
2023/09/05 04:02:57;;;;;;;0.00;0.00;;;;;;;24.48;53.21;102131.56;5050682;28;20021;-67
2023/09/05 04:05:22;;;;;;;0.10;0.10;;;;;;;24.27;53.55;102130.88;5052519;28;20032;-66
2023/09/05 04:07:48;;;;;;;0.10;0.10;;;;;;;24.02;54.33;102127.47;5052161;28;20025;-67
2023/09/05 04:10:13;;;;;;;0.10;0.10;;;;;;;24.39;53.37;102133.28;5044485;28;20029;-67
2023/09/05 04:12:39;;;;;;;0.10;0.10;;;;;;;24.42;53.09;102127.19;5046126;28;20033;-68
2023/09/05 04:15:05;;;;;;;0.08;0.08;;;;;;;24.39;53.01;102136.84;5051629;28;20033;-67
2023/09/05 04:17:30;;;;;;;0.10;0.10;;;;;;;24.37;53.26;102125.31;5051480;28;20120;-67
2023/09/05 04:19:55;;;;;;;0.00;0.00;;;;;;;24.28;53.43;102131.69;5052806;28;20040;-66
2023/09/05 04:22:24;;;;;;;0.08;0.08;;;;;;;24.42;53.54;102118.97;5052515;28;20036;-67
2023/09/05 04:24:56;;;;;;;0.17;0.17;;;;;;;24.48;53.03;102122.47;5052422;28;20037;-67
2023/09/05 04:27:23;;;;;;;0.10;0.10;;;;;;;24.17;53.89;102121.91;5052206;28;20052;-67
2023/09/05 04:29:54;;;;;;;0.10;0.10;;;;;;;24.11;54.29;102126.59;5052409;28;20029;-67
2023/09/05 04:32:27;;;;;;;;;;;;;;;24.69;52.36;102122.03;5052533;28;20025;-66
2023/09/05 04:34:57;;;;;;;0.10;0.10;;;;;;;24.43;53.11;102121.41;5052732;28;20359;-67
2023/09/05 04:37:22;;;;;;;0.10;0.10;;;;;;;24.34;53.34;102133.31;5051797;28;20358;-67
2023/09/05 04:39:48;;;;;;;0.10;0.10;;;;;;;24.28;54.50;102121.53;5052173;28;20047;-68
2023/09/05 04:42:13;;;;;;;0.10;0.10;;;;;;;24.02;54.21;102121.97;5052208;28;20420;-67
2023/09/05 04:44:38;;;;;;;0.10;0.10;;;;;;;24.25;53.15;102119.34;5051694;28;20673;-67
2023/09/05 04:47:24;;;;;;;0.10;0.10;;;;;;;24.18;54.12;102118.84;5032736;28;20151;-67
2023/09/05 04:49:53;;;;;;;0.10;0.10;;;;;;;24.02;54.38;102113.72;5032038;28;20068;-67
2023/09/05 04:52:20;;;;;;;0.10;0.10;;;;;;;23.99;54.62;102109.63;5048083;28;20071;-67
2023/09/05 04:54:46;;;;;;;0.08;0.08;;;;;;;23.98;54.63;102104.41;5042428;28;20132;-66
2023/09/05 04:57:16;;;;;;;0.10;0.10;;;;;;;24.00;55.25;102103.00;5050553;28;20113;-68
2023/09/05 04:59:49;;;;;;;0.08;0.08;;;;;;;23.86;55.38;102112.97;5032958;28;20120;-66
2023/09/05 05:02:15;;;;;;;0.10;0.10;;;;;;;23.46;56.53;102108.50;5048331;28;20028;-68
2023/09/05 05:04:41;;;;;;;0.10;0.10;;;;;;;24.11;54.55;102112.88;5049348;28;20361;-67
2023/09/05 05:07:07;;;;;;;0.10;0.10;;;;;;;24.24;54.28;102127.88;5050361;28;20045;-67
2023/09/05 05:09:34;;;;;;;0.15;0.15;;;;;;;23.98;54.83;102113.44;5051427;28;20033;-67
2023/09/05 05:12:00;;;;;;;0.10;0.10;;;;;;;24.01;54.76;102118.38;5044149;28;20034;-66
2023/09/05 05:14:25;;;;;;;0.10;0.10;;;;;;;24.10;54.19;102108.47;5032647;28;20041;-66
2023/09/05 05:16:51;;;;;;;0.10;0.10;;;;;;;24.20;54.33;102107.56;5051087;28;20495;-66
2023/09/05 05:19:16;;;;;;;0.10;0.10;;;;;;;23.62;55.82;102108.44;5050379;28;20033;-69
2023/09/05 05:21:41;;;;;;;0.10;0.10;;;;;;;23.81;55.71;102103.94;5050300;28;20040;-66
2023/09/05 05:24:07;;;;;;;0.10;0.10;;;;;;;24.03;55.16;102104.41;5045785;28;20405;-66
2023/09/05 05:26:33;;;;;;;0.10;0.10;;;;;;;24.14;54.34;102104.03;5059998;28;20044;-66
2023/09/05 05:28:59;;;;;;;0.10;0.10;;;;;;;24.33;53.89;102104.19;5059605;28;20031;-66
2023/09/05 05:31:25;;;;;;;0.10;0.10;;;;;;;24.63;53.16;102103.94;5060208;28;20113;-67
2023/09/05 05:33:51;;;;;;;0.10;0.10;;;;;;;24.71;53.09;102099.72;5061101;28;20028;-67
2023/09/05 05:36:16;;;;;;;0.10;0.10;;;;;;;24.71;52.57;102108.81;5067065;28;20523;-67
2023/09/05 05:38:42;;;;;;;0.10;0.10;;;;;;;24.63;53.06;102112.19;5069712;28;20040;-68
2023/09/05 05:41:10;;;;;;;0.10;0.10;;;;;;;24.51;53.68;102119.97;5069978;28;20035;-67
2023/09/05 05:43:36;;;;;;;0.10;0.10;;;;;;;24.61;53.26;102111.66;5066691;28;20040;-67
2023/09/05 05:46:02;;;;;;;0.10;0.10;;;;;;;24.67;53.01;102115.19;5049409;28;20424;-67
2023/09/05 05:48:36;;;;;;;0.10;0.10;;;;;;;24.62;53.29;102113.31;5091420;27;20716;-67
2023/09/05 05:51:02;;;;;;;0.10;0.10;;;;;;;24.58;53.53;102114.16;5065965;28;20583;-67
2023/09/05 05:53:28;;;;;;;0.00;0.00;;;;;;;24.75;53.21;102115.41;5066211;28;20107;-67
2023/09/05 05:55:54;;;;;;;0.03;0.03;;;;;;;24.91;52.46;102119.66;5066555;28;20059;-67
2023/09/05 05:58:20;;;;;;;0.00;0.00;;;;;;;24.86;52.70;102116.16;5066320;28;20409;-66
2023/09/05 06:00:51;;;;;;;0.10;0.10;;;;;;;24.72;53.65;102120.63;5065289;28;20063;-67
2023/09/05 06:03:20;;;;;;;0.00;0.00;;;;;;;25.02;52.86;102112.94;5066650;28;20025;-67
2023/09/05 06:05:48;;;;;;;0.00;0.00;;;;;;;25.07;52.45;102121.16;5066938;28;20045;-68
2023/09/05 06:08:14;;;;;;;0.00;0.00;;;;;;;25.13;52.40;102125.50;5066713;28;20028;-67
2023/09/05 06:10:39;;;;;;;0.00;0.00;;;;;;;25.15;52.38;102126.03;5067320;28;20044;-66
2023/09/05 06:13:05;;;;;;;0.05;0.05;;;;;;;25.12;52.58;102125.75;5066463;28;20515;-67
2023/09/05 06:15:32;;;;;;;0.00;0.00;;;;;;;25.15;52.68;102125.19;5066501;28;20568;-66
2023/09/05 06:17:57;;;;;;;0.00;0.00;;;;;;;25.31;52.51;102123.09;5066183;28;20480;-67
2023/09/05 06:20:22;;;;;;;0.00;0.00;;;;;;;25.04;53.33;102123.69;5066810;28;20082;-67
2023/09/05 06:22:49;;;;;;;0.00;0.00;;;;;;;25.50;51.78;102126.75;5066789;28;20495;-67
2023/09/05 06:25:15;;;;;;;0.00;0.00;;;;;;;25.26;53.14;102119.28;5066326;28;20044;-67
2023/09/05 06:27:43;;;;;;;0.00;0.00;;;;;;;25.08;53.31;102116.47;5066470;28;20550;-67
2023/09/05 06:30:10;;;;;;;0.00;0.00;;;;;;;25.54;51.79;102123.13;5066448;28;20063;-67
2023/09/05 06:32:35;;;;;;;0.00;0.00;;;;;;;25.42;52.36;102127.38;5066157;28;20033;-67
2023/09/05 06:35:01;;;;;;;0.10;0.10;;;;;;;25.53;51.87;102116.00;5066630;28;20035;-67
2023/09/05 06:37:28;;;;;;;0.00;0.00;;;;;;;25.89;50.86;102124.59;5068458;28;20488;-66
2023/09/05 06:39:54;;;;;;;0.00;0.00;;;;;;;26.03;50.46;102123.56;5084966;28;20035;-68
2023/09/05 06:42:21;;;;;;;0.00;0.00;;;;;;;26.12;50.85;102118.25;5085053;28;20098;-68
2023/09/05 06:44:47;;;;;;;0.00;0.00;;;;;;;26.14;50.51;102121.53;5073825;28;20040;-68
2023/09/05 06:47:13;;;;;;;0.08;0.08;;;;;;;26.19;50.54;102126.13;5065283;28;20069;-67
2023/09/05 06:49:38;;;;;;;0.00;0.00;;;;;;;25.95;51.34;102118.72;5066578;28;20016;-67
2023/09/05 06:52:04;;;;;;;0.00;0.00;;;;;;;26.21;51.05;102124.72;5066001;28;20037;-67
2023/09/05 06:54:29;;;;;;;0.00;0.00;;;;;;;26.26;50.81;102123.81;5066019;28;20053;-68
2023/09/05 06:56:55;;;;;;;0.00;0.00;;;;;;;26.54;50.29;102106.25;5065923;28;20028;-68
2023/09/05 06:59:20;;;;;;;0.00;0.00;;;;;;;26.75;49.56;102116.66;5055805;28;20025;-67
2023/09/05 07:01:46;;;;;;;0.00;0.00;;;;;;;26.75;49.85;102127.72;5053015;28;20469;-67
2023/09/05 07:04:13;;;;;;;0.00;0.00;;;;;;;26.71;49.98;102118.41;5052538;28;20049;-68
2023/09/05 07:06:39;;;;;;;0.00;0.00;;;;;;;26.55;51.25;102114.25;5052529;28;20043;-66
2023/09/05 07:09:06;;;;;;;0.00;0.00;;;;;;;26.82;50.54;102117.13;5052559;28;20120;-68
2023/09/05 07:11:31;;;;;;;0.00;0.00;;;;;;;27.04;50.00;102118.38;5052849;28;20091;-67
2023/09/05 07:13:57;;;;;;;0.03;0.03;;;;;;;26.61;50.56;102110.25;5052836;28;20412;-67
2023/09/05 07:16:22;;;;;;;0.00;0.00;;;;;;;27.32;48.87;102118.09;5052150;28;20351;-67
2023/09/05 07:18:47;;;;;;;0.00;0.00;;;;;;;27.46;48.52;102115.38;5052353;28;20068;-67
2023/09/05 07:21:13;;;;;;;0.00;0.00;;;;;;;27.17;49.79;102123.91;5052445;28;20382;-67
2023/09/05 07:23:39;;;;;;;0.00;0.00;;;;;;;27.32;48.75;102114.53;5050701;28;20044;-67
2023/09/05 07:26:05;;;;;;;0.00;0.00;;;;;;;27.17;49.81;102101.81;5052506;28;20032;-68
2023/09/05 07:28:30;;;;;;;0.00;0.00;;;;;;;27.67;48.77;102108.28;5052037;28;20037;-67
2023/09/05 07:30:56;;;;;;;0.00;0.00;;;;;;;27.86;48.42;102108.16;5052048;28;20429;-67
2023/09/05 07:33:21;;;;;;;0.00;0.00;;;;;;;28.05;47.57;102103.34;5051955;28;20036;-68
2023/09/05 07:35:46;;;;;;;0.00;0.00;;;;;;;28.21;47.48;102104.59;5051802;28;20037;-68
2023/09/05 07:38:17;;;;;;;0.00;0.00;;;;;;;27.98;48.34;102095.47;5052480;28;20429;-67
2023/09/05 07:40:42;;;;;;;0.00;0.00;;;;;;;28.37;47.41;102100.34;5052009;28;20037;-67
2023/09/05 07:43:07;;;;;;;0.00;0.00;;;;;;;28.27;47.64;102106.94;5051484;28;20094;-67
2023/09/05 07:45:33;;;;;;;0.00;0.00;;;;;;;28.51;46.69;102112.97;5051441;28;20501;-68
2023/09/05 07:47:58;;;;;;;0.00;0.00;;;;;;;28.00;48.19;102108.97;5051169;28;20033;-68
2023/09/05 07:50:24;;;;;;;0.00;0.00;;;;;;;28.92;45.34;102114.72;5051701;28;20398;-68
2023/09/05 07:52:49;;;;;;;0.00;0.00;;;;;;;28.76;46.02;102116.25;5052082;28;20036;-67
2023/09/05 07:55:16;;;;;;;0.00;0.00;;;;;;;29.16;45.48;102115.19;5051644;28;20061;-68
2023/09/05 07:57:41;;;;;;;0.00;0.00;;;;;;;28.66;46.80;102113.75;5051506;28;20055;-67
2023/09/05 08:00:08;;;;;;;0.00;0.00;;;;;;;28.84;46.49;102113.53;5051582;28;20037;-67
2023/09/05 08:02:34;;;;;;;0.00;0.00;;;;;;;29.06;46.05;102104.38;5051431;28;20052;-68
2023/09/05 08:04:59;;;;;;;0.00;0.00;;;;;;;29.21;44.83;102110.31;5051906;28;20024;-67
2023/09/05 08:07:25;;;;;;;0.00;0.00;;;;;;;29.55;44.60;102117.13;5051427;28;20033;-67
2023/09/05 08:09:50;;;;;;;0.00;0.00;;;;;;;29.36;44.86;102104.38;5049407;28;20500;-67
2023/09/05 08:12:17;;;;;;;0.00;0.00;;;;;;;29.47;44.93;102110.41;5051172;28;20083;-68
2023/09/05 08:14:43;;;;;;;0.00;0.00;;;;;;;29.43;46.51;102113.03;5051305;28;20086;-67
2023/09/05 08:17:08;;;;;;;0.00;0.00;;;;;;;29.78;46.06;102110.38;5050044;28;20029;-67
2023/09/05 08:19:34;;;;;;;0.00;0.00;;;;;;;28.94;47.98;102112.44;5051134;28;20033;-67
2023/09/05 08:21:59;;;;;;;0.00;0.00;;;;;;;28.75;48.60;102104.38;5051145;28;20115;-67
2023/09/05 08:24:24;;;;;;;0.00;0.00;;;;;;;29.83;45.74;102104.66;5050990;28;20770;-68
2023/09/05 08:26:50;;;;;;;0.00;0.00;;;;;;;29.98;46.24;102095.88;5050898;28;20040;-68
2023/09/05 08:29:17;;;;;;;0.00;0.00;;;;;;;29.74;45.98;102090.00;5050780;28;20036;-67
2023/09/05 08:31:44;;;;;;;0.00;0.00;;;;;;;30.01;45.21;102089.69;5068004;28;20066;-67
2023/09/05 08:34:09;;;;;;;0.00;0.00;;;;;;;30.56;43.39;102096.22;5070759;28;20036;-66
2023/09/05 08:36:35;;;;;;;0.00;0.00;;;;;;;30.42;43.74;102090.03;5052012;28;20087;-67
2023/09/05 08:39:00;;;;;;;0.00;0.00;;;;;;;30.46;43.65;102095.72;5050647;28;20086;-67
2023/09/05 08:41:25;;;;;;;0.00;0.00;;;;;;;30.58;43.25;102084.78;5050966;28;20040;-68
2023/09/05 08:43:53;;;;;;;0.00;0.00;;;;;;;30.48;42.69;102090.66;5050881;28;20013;-69
2023/09/05 08:46:19;;;;;;;0.00;0.00;;;;;;;30.76;41.11;102080.81;5049908;28;20037;-67
2023/09/05 08:48:44;;;;;;;0.00;0.00;;;;;;;30.54;40.95;102092.13;5048690;28;20048;-66
2023/09/05 08:51:12;;;;;;;0.00;0.00;;;;;;;30.69;39.72;102083.25;5052923;28;20057;-68
2023/09/05 08:53:43;;;;;;;0.00;0.00;;;;;;;31.42;38.94;102085.66;5050188;28;20037;-67
2023/09/05 08:56:09;;;;;;;0.00;0.00;;;;;;;31.04;39.50;102093.13;5050740;28;20033;-67
2023/09/05 08:58:35;;;;;;;0.00;0.00;;;;;;;31.00;38.77;102087.44;5050491;28;20587;-67
2023/09/05 09:01:00;;;;;;;0.00;0.00;;;;;;;31.00;38.57;102089.41;5050133;28;20041;-67
2023/09/05 09:03:26;;;;;;;0.00;0.00;;;;;;;31.68;37.76;102093.81;5050324;28;20032;-68
2023/09/05 09:05:52;;;;;;;0.00;0.00;;;;;;;32.13;37.06;102083.69;5050179;28;20079;-67
2023/09/05 09:08:19;;;;;;;0.00;0.00;;;;;;;31.70;38.04;102085.97;5063565;28;20063;-67
2023/09/05 09:11:04;;;;;;;0.00;0.00;;;;;;;32.02;37.01;102085.25;5070765;28;20054;-67
2023/09/05 09:13:30;;;;;;;0.00;0.00;;;;;;;32.31;36.77;102087.97;5070150;28;20405;-67
2023/09/05 09:15:55;;;;;;;0.00;0.00;;;;;;;31.50;37.39;102079.22;5061579;28;20057;-66
2023/09/05 09:18:22;;;;;;;0.00;0.00;;;;;;;31.83;36.92;102077.34;5049720;28;20535;-67
2023/09/05 09:20:51;;;;;;;0.00;0.00;;;;;;;32.02;36.41;102078.88;5059806;28;20028;-68
2023/09/05 09:23:35;;;;;;;0.00;0.00;;;;;;;32.08;35.55;102080.31;5088888;28;20055;-66
2023/09/05 09:26:03;;;;;;;0.00;0.00;;;;;;;31.66;36.76;102076.66;5089858;28;20031;-67
2023/09/05 09:28:32;;;;;;;0.00;0.00;;;;;;;31.65;35.63;102084.19;5051182;28;20120;-67
2023/09/05 09:31:01;;;;;;;0.00;0.00;;;;;;;32.01;35.29;102086.41;5050152;28;20643;-66
2023/09/05 09:33:27;;;;;;;0.00;0.00;;;;;;;31.94;35.27;102080.59;5046531;28;20868;-66
2023/09/05 09:36:05;;;;;;;0.00;0.00;;;;;;;32.22;33.82;102080.81;5049284;28;20068;-67
2023/09/05 09:38:31;;;;;;;0.00;0.00;;;;;;;32.09;33.77;102084.72;5049555;28;20024;-67
2023/09/05 09:41:02;;;;;;;0.00;0.00;;;;;;;32.36;34.21;102078.56;5035730;28;20029;-66
2023/09/05 09:43:31;;;;;;;0.00;0.00;;;;;;;32.45;34.36;102071.78;5036090;28;20038;-67
2023/09/05 09:46:03;;;;;;;0.00;0.00;;;;;;;32.67;34.00;102076.94;5049473;28;20465;-66
2023/09/05 09:48:29;;;;;;;0.00;0.00;;;;;;;32.59;34.06;102072.28;5067788;28;20071;-67
2023/09/05 09:50:56;;;;;;;0.00;0.00;;;;;;;32.85;33.45;102070.03;5049593;28;20025;-67
2023/09/05 09:53:38;;;;;;;0.00;0.00;;;;;;;33.09;33.46;102066.50;5062289;28;20040;-66
2023/09/05 09:56:11;;;;;;;0.00;0.00;;;;;;;33.39;33.08;102072.63;5069887;28;20794;-66
2023/09/05 09:58:40;;;;;;;0.00;0.00;;;;;;;33.59;32.75;102071.72;5069314;28;20439;-66
2023/09/05 10:01:09;;;;;;;0.00;0.00;;;;;;;33.60;32.81;102074.16;5069223;28;20168;-66
2023/09/05 10:03:37;;;;;;;0.00;0.00;;;;;;;33.53;33.09;102064.75;5068542;28;20032;-66
2023/09/05 10:06:04;;;;;;;0.00;0.00;;;;;;;33.65;33.01;102073.91;5068777;28;20056;-67
2023/09/05 10:08:32;;;;;;;0.00;0.00;;;;;;;33.24;33.38;102067.78;5059023;28;20055;-67
2023/09/05 10:10:58;;;;;;;0.00;0.00;;;;;;;33.86;32.63;102068.16;5081176;28;20073;-68
2023/09/05 10:13:27;;;;;;;0.00;0.00;;;;;;;34.08;32.40;102064.88;5069194;28;20047;-68
2023/09/05 10:15:56;;;;;;;0.00;0.00;;;;;;;33.80;32.87;102065.97;5068795;28;20046;-67
2023/09/05 10:18:22;;;;;;;0.00;0.00;;;;;;;33.74;32.49;102059.00;5068267;28;20048;-67
2023/09/05 10:20:54;;;;;;;0.00;0.00;;;;;;;33.92;32.39;102057.56;5068904;28;20033;-68
2023/09/05 10:23:23;;;;;;;0.00;0.00;;;;;;;33.38;33.38;102049.53;5072241;28;20021;-66
2023/09/05 10:25:50;;;;;;;0.00;0.00;;;;;;;33.78;32.76;102057.16;5069784;28;20033;-67
2023/09/05 10:28:16;;;;;;;0.00;0.00;;;;;;;33.88;31.88;102060.25;5068707;28;20027;-67
2023/09/05 10:30:45;;;;;;;0.00;0.00;;;;;;;34.04;31.86;102063.97;5068876;28;20041;-67
2023/09/05 10:33:13;;;;;;;0.00;0.00;;;;;;;34.64;31.42;102060.06;5083474;28;20040;-68
2023/09/05 10:35:45;;;;;;;0.00;0.00;;;;;;;34.62;31.86;102059.63;5072580;28;20036;-67
2023/09/05 10:38:13;;;;;;;0.00;0.00;;;;;;;35.23;30.77;102054.41;5072940;28;20556;-67
2023/09/05 10:40:39;;;;;;;0.00;0.00;;;;;;;34.50;31.69;102054.09;5072794;28;20106;-67
2023/09/05 10:43:06;;;;;;;0.00;0.00;;;;;;;33.75;33.69;102055.84;5058735;28;20512;-67
2023/09/05 10:45:37;;;;;;;0.00;0.00;;;;;;;34.28;32.68;102055.47;5065796;28;20059;-66
2023/09/05 10:48:15;;;;;;;0.00;0.00;;;;;;;34.57;31.96;102061.88;5071833;28;20658;-67
2023/09/05 10:51:07;;;;;;;0.00;0.00;;;;;;;35.00;31.10;102053.44;5072606;28;20024;-68
2023/09/05 10:53:34;;;;;;;0.00;0.00;;;;;;;34.62;30.73;102053.22;5072346;28;20354;-68
2023/09/05 10:55:59;;;;;;;0.00;0.00;;;;;;;34.54;31.70;102057.00;5072834;28;20508;-67
2023/09/05 10:58:43;;;;;;;0.00;0.00;;;;;;;35.47;30.14;102059.00;5072415;28;20040;-70
2023/09/05 11:01:29;;;;;;;0.00;0.00;;;;;;;35.94;30.25;102045.69;5060812;28;20040;-67
2023/09/05 11:03:55;;;;;;;0.00;0.00;;;;;;;35.43;31.24;102049.69;5071777;28;20131;-68
2023/09/05 11:06:21;;;;;;;0.00;0.00;;;;;;;34.91;31.37;102053.59;5072001;28;20040;-68
2023/09/05 11:09:01;;;;;;;0.00;0.00;;;;;;;35.64;30.82;102044.59;5072207;28;20492;-68
2023/09/05 11:11:26;;;;;;;0.00;0.00;;;;;;;35.61;30.55;102048.97;5072071;28;20025;-67
2023/09/05 11:13:52;;;;;;;0.00;0.00;;;;;;;35.31;30.70;102056.19;5072405;28;20550;-67
2023/09/05 11:16:17;;;;;;;0.00;0.00;;;;;;;35.51;30.18;102063.50;5071302;28;20051;-67
2023/09/05 11:18:56;;;;;;;0.00;0.00;;;;;;;34.80;30.16;102051.69;5074178;28;20078;-66
2023/09/05 11:21:23;;;;;;;0.00;0.00;;;;;;;35.48;30.22;102057.84;5069051;28;20059;-66
2023/09/05 11:23:54;;;;;;;0.00;0.00;;;;;;;35.79;30.89;102057.72;5071781;28;20024;-67
2023/09/05 11:26:21;;;;;;;0.00;0.00;;;;;;;35.55;30.79;102055.19;5071938;28;20029;-66
2023/09/05 11:28:48;;;;;;;0.00;0.00;;;;;;;35.89;29.88;102055.16;5072124;28;20036;-68